sensor_id;sensor_type;location;lat;lon;timestamp;pressure;altitude;pressure_sealevel;temperature;humidity
9474;BME280;8865;47.636;7.692;2022-08-30T00:02:17;98415.75;;;19.51;100.00
9474;BME280;8865;47.636;7.692;2022-08-30T00:04:44;98406.94;;;19.50;100.00
9474;BME280;8865;47.636;7.692;2022-08-30T00:07:10;98405.31;;;19.49;100.00
9474;BME280;8865;47.636;7.692;2022-08-30T00:09:36;98404.19;;;19.43;100.00
9474;BME280;8865;47.636;7.692;2022-08-30T00:12:02;98409.06;;;19.40;100.00
9474;BME280;8865;47.636;7.692;2022-08-30T00:14:29;98411.91;;;19.38;100.00
9474;BME280;8865;47.636;7.692;2022-08-30T00:16:55;98397.34;;;19.34;100.00
9474;BME280;8865;47.636;7.692;2022-08-30T00:19:20;98394.25;;;19.31;100.00
9474;BME280;8865;47.636;7.692;2022-08-30T00:21:46;98396.25;;;19.28;100.00
9474;BME280;8865;47.636;7.692;2022-08-30T00:24:15;98401.75;;;19.27;100.00
9474;BME280;8865;47.636;7.692;2022-08-30T00:26:41;98395.16;;;19.23;100.00
9474;BME280;8865;47.636;7.692;2022-08-30T00:29:07;98395.06;;;19.16;100.00
9474;BME280;8865;47.636;7.692;2022-08-30T00:31:33;98392.16;;;19.11;100.00
9474;BME280;8865;47.636;7.692;2022-08-30T00:33:59;98395.63;;;19.12;100.00
9474;BME280;8865;47.636;7.692;2022-08-30T00:36:25;98397.47;;;19.11;100.00
9474;BME280;8865;47.636;7.692;2022-08-30T00:38:51;98393.31;;;19.08;100.00
9474;BME280;8865;47.636;7.692;2022-08-30T00:41:17;98393.31;;;19.08;100.00
9474;BME280;8865;47.636;7.692;2022-08-30T00:43:43;98389.59;;;19.03;100.00
9474;BME280;8865;47.636;7.692;2022-08-30T00:46:09;98390.41;;;19.03;100.00
9474;BME280;8865;47.636;7.692;2022-08-30T00:48:38;98392.63;;;19.00;100.00
9474;BME280;8865;47.636;7.692;2022-08-30T00:51:07;98386.66;;;18.98;100.00
9474;BME280;8865;47.636;7.692;2022-08-30T00:53:38;98386.81;;;18.96;100.00
9474;BME280;8865;47.636;7.692;2022-08-30T00:56:06;98387.19;;;18.93;100.00
9474;BME280;8865;47.636;7.692;2022-08-30T00:58:36;98391.88;;;18.91;100.00
9474;BME280;8865;47.636;7.692;2022-08-30T01:01:05;98386.75;;;18.89;100.00
9474;BME280;8865;47.636;7.692;2022-08-30T01:03:32;98387.94;;;18.87;100.00
9474;BME280;8865;47.636;7.692;2022-08-30T01:05:58;98389.06;;;18.84;100.00
9474;BME280;8865;47.636;7.692;2022-08-30T01:08:25;98388.81;;;18.79;100.00
9474;BME280;8865;47.636;7.692;2022-08-30T01:10:52;98388.16;;;18.77;100.00
9474;BME280;8865;47.636;7.692;2022-08-30T01:13:21;98399.78;;;18.76;100.00
9474;BME280;8865;47.636;7.692;2022-08-30T01:15:49;98400.16;;;18.73;100.00
9474;BME280;8865;47.636;7.692;2022-08-30T01:18:16;98401.31;;;18.70;100.00
9474;BME280;8865;47.636;7.692;2022-08-30T01:23:34;98408.66;;;18.68;100.00
9474;BME280;8865;47.636;7.692;2022-08-30T01:26:03;98404.34;;;18.67;100.00
9474;BME280;8865;47.636;7.692;2022-08-30T01:28:31;98403.88;;;18.64;100.00
9474;BME280;8865;47.636;7.692;2022-08-30T01:30:57;98404.25;;;18.61;100.00
9474;BME280;8865;47.636;7.692;2022-08-30T01:33:24;98405.78;;;18.55;100.00
9474;BME280;8865;47.636;7.692;2022-08-30T01:35:59;98408.44;;;18.55;100.00
9474;BME280;8865;47.636;7.692;2022-08-30T01:38:29;98404.31;;;18.52;100.00
9474;BME280;8865;47.636;7.692;2022-08-30T01:41:09;98414.28;;;18.50;100.00
9474;BME280;8865;47.636;7.692;2022-08-30T01:43:35;98410.81;;;18.50;100.00
9474;BME280;8865;47.636;7.692;2022-08-30T01:46:01;98415.28;;;18.49;100.00
9474;BME280;8865;47.636;7.692;2022-08-30T01:48:27;98417.28;;;18.47;100.00
9474;BME280;8865;47.636;7.692;2022-08-30T01:50:54;98415.00;;;18.44;100.00
9474;BME280;8865;47.636;7.692;2022-08-30T01:53:20;98423.31;;;18.41;100.00
9474;BME280;8865;47.636;7.692;2022-08-30T01:55:46;98419.19;;;18.38;100.00
9474;BME280;8865;47.636;7.692;2022-08-30T01:58:13;98415.72;;;18.38;100.00
9474;BME280;8865;47.636;7.692;2022-08-30T02:00:39;98419.38;;;18.37;100.00
9474;BME280;8865;47.636;7.692;2022-08-30T02:03:05;98416.25;;;18.33;100.00
9474;BME280;8865;47.636;7.692;2022-08-30T02:05:32;98420.09;;;18.31;100.00
9474;BME280;8865;47.636;7.692;2022-08-30T02:07:58;98415.31;;;18.26;100.00
9474;BME280;8865;47.636;7.692;2022-08-30T02:10:24;98422.59;;;18.24;100.00
9474;BME280;8865;47.636;7.692;2022-08-30T02:12:50;98415.19;;;18.19;100.00
9474;BME280;8865;47.636;7.692;2022-08-30T02:15:17;98420.50;;;18.19;100.00
9474;BME280;8865;47.636;7.692;2022-08-30T02:17:43;98416.22;;;18.18;100.00
9474;BME280;8865;47.636;7.692;2022-08-30T02:20:09;98409.59;;;18.14;100.00
9474;BME280;8865;47.636;7.692;2022-08-30T02:22:36;98416.91;;;18.12;100.00
9474;BME280;8865;47.636;7.692;2022-08-30T02:25:04;98414.25;;;18.12;100.00
9474;BME280;8865;47.636;7.692;2022-08-30T02:27:30;98415.44;;;18.10;100.00
9474;BME280;8865;47.636;7.692;2022-08-30T02:29:56;98409.69;;;18.06;100.00
9474;BME280;8865;47.636;7.692;2022-08-30T02:32:22;98415.78;;;18.07;100.00
9474;BME280;8865;47.636;7.692;2022-08-30T02:34:48;98409.84;;;18.05;100.00
9474;BME280;8865;47.636;7.692;2022-08-30T02:37:14;98412.84;;;18.01;100.00
9474;BME280;8865;47.636;7.692;2022-08-30T02:39:41;98410.56;;;17.98;100.00
9474;BME280;8865;47.636;7.692;2022-08-30T02:42:08;98419.66;;;17.96;100.00
9474;BME280;8865;47.636;7.692;2022-08-30T02:44:34;98421.50;;;17.95;100.00
9474;BME280;8865;47.636;7.692;2022-08-30T02:47:00;98420.84;;;17.93;100.00
9474;BME280;8865;47.636;7.692;2022-08-30T02:49:26;98418.00;;;17.95;100.00
9474;BME280;8865;47.636;7.692;2022-08-30T02:51:52;98416.56;;;17.92;100.00
9474;BME280;8865;47.636;7.692;2022-08-30T02:54:18;98418.38;;;17.92;100.00
9474;BME280;8865;47.636;7.692;2022-08-30T02:56:47;98414.22;;;17.89;100.00
9474;BME280;8865;47.636;7.692;2022-08-30T02:59:15;98413.72;;;17.85;100.00
9474;BME280;8865;47.636;7.692;2022-08-30T03:01:41;98405.16;;;17.83;100.00
9474;BME280;8865;47.636;7.692;2022-08-30T03:04:07;98409.78;;;17.81;100.00
9474;BME280;8865;47.636;7.692;2022-08-30T03:06:34;98413.63;;;17.79;100.00
9474;BME280;8865;47.636;7.692;2022-08-30T03:09:01;98414.78;;;17.76;100.00
9474;BME280;8865;47.636;7.692;2022-08-30T03:11:27;98410.19;;;17.70;100.00
9474;BME280;8865;47.636;7.692;2022-08-30T03:13:53;98401.94;;;17.65;100.00
9474;BME280;8865;47.636;7.692;2022-08-30T03:16:19;98391.34;;;17.65;100.00
9474;BME280;8865;47.636;7.692;2022-08-30T03:18:47;98385.56;;;17.61;100.00
9474;BME280;8865;47.636;7.692;2022-08-30T03:21:14;98371.66;;;17.59;100.00
9474;BME280;8865;47.636;7.692;2022-08-30T03:23:41;98373.69;;;17.57;100.00
9474;BME280;8865;47.636;7.692;2022-08-30T03:26:08;98380.94;;;17.55;100.00
9474;BME280;8865;47.636;7.692;2022-08-30T03:28:37;98372.72;;;17.50;100.00
9474;BME280;8865;47.636;7.692;2022-08-30T03:31:03;98372.72;;;17.50;100.00
9474;BME280;8865;47.636;7.692;2022-08-30T03:33:30;98368.22;;;17.50;100.00
9474;BME280;8865;47.636;7.692;2022-08-30T03:35:56;98367.59;;;17.48;100.00
9474;BME280;8865;47.636;7.692;2022-08-30T03:38:22;98369.59;;;17.46;100.00
9474;BME280;8865;47.636;7.692;2022-08-30T03:40:49;98376.22;;;17.42;100.00
9474;BME280;8865;47.636;7.692;2022-08-30T03:43:15;98379.06;;;17.41;100.00
9474;BME280;8865;47.636;7.692;2022-08-30T03:45:41;98390.47;;;17.41;100.00
9474;BME280;8865;47.636;7.692;2022-08-30T03:48:07;98392.47;;;17.39;100.00
9474;BME280;8865;47.636;7.692;2022-08-30T03:50:33;98394.13;;;17.40;100.00
9474;BME280;8865;47.636;7.692;2022-08-30T03:53:02;98399.59;;;17.39;100.00
9474;BME280;8865;47.636;7.692;2022-08-30T03:55:28;98402.41;;;17.37;100.00
9474;BME280;8865;47.636;7.692;2022-08-30T03:57:55;98397.94;;;17.38;100.00
9474;BME280;8865;47.636;7.692;2022-08-30T04:00:21;98406.84;;;17.37;100.00
9474;BME280;8865;47.636;7.692;2022-08-30T04:02:48;98406.03;;;17.36;100.00
9474;BME280;8865;47.636;7.692;2022-08-30T04:05:14;98413.19;;;17.36;100.00
9474;BME280;8865;47.636;7.692;2022-08-30T04:07:40;98412.31;;;17.35;100.00
9474;BME280;8865;47.636;7.692;2022-08-30T04:10:07;98415.31;;;17.32;100.00
9474;BME280;8865;47.636;7.692;2022-08-30T04:12:34;98422.28;;;17.33;100.00
9474;BME280;8865;47.636;7.692;2022-08-30T04:15:00;98426.94;;;17.31;100.00
9474;BME280;8865;47.636;7.692;2022-08-30T04:17:26;98425.25;;;17.30;100.00
9474;BME280;8865;47.636;7.692;2022-08-30T04:19:53;98420.94;;;17.29;100.00
9474;BME280;8865;47.636;7.692;2022-08-30T04:22:19;98424.63;;;17.28;100.00
9474;BME280;8865;47.636;7.692;2022-08-30T04:24:44;98420.31;;;17.27;100.00
9474;BME280;8865;47.636;7.692;2022-08-30T04:27:10;98409.09;;;17.25;100.00
9474;BME280;8865;47.636;7.692;2022-08-30T04:29:37;98413.53;;;17.24;100.00
9474;BME280;8865;47.636;7.692;2022-08-30T04:32:03;98412.06;;;17.22;100.00
9474;BME280;8865;47.636;7.692;2022-08-30T04:34:29;98412.06;;;17.22;100.00
9474;BME280;8865;47.636;7.692;2022-08-30T04:36:55;98415.69;;;17.21;100.00
9474;BME280;8865;47.636;7.692;2022-08-30T04:39:21;98417.53;;;17.20;100.00
9474;BME280;8865;47.636;7.692;2022-08-30T04:41:47;98421.00;;;17.21;100.00
9474;BME280;8865;47.636;7.692;2022-08-30T04:44:13;98423.13;;;17.25;100.00
9474;BME280;8865;47.636;7.692;2022-08-30T04:46:40;98422.31;;;17.25;100.00
9474;BME280;8865;47.636;7.692;2022-08-30T04:49:06;98425.94;;;17.24;100.00
9474;BME280;8865;47.636;7.692;2022-08-30T04:51:32;98425.13;;;17.23;100.00
9474;BME280;8865;47.636;7.692;2022-08-30T04:53:59;98429.25;;;17.26;100.00
9474;BME280;8865;47.636;7.692;2022-08-30T04:56:25;98425.13;;;17.23;100.00
9474;BME280;8865;47.636;7.692;2022-08-30T04:58:52;98430.25;;;17.25;100.00
9474;BME280;8865;47.636;7.692;2022-08-30T05:01:22;98426.75;;;17.24;100.00
9474;BME280;8865;47.636;7.692;2022-08-30T05:03:50;98430.25;;;17.25;100.00
9474;BME280;8865;47.636;7.692;2022-08-30T05:06:17;98431.38;;;17.30;100.00
9474;BME280;8865;47.636;7.692;2022-08-30T05:08:44;98431.88;;;17.34;100.00
9474;BME280;8865;47.636;7.692;2022-08-30T05:11:10;98434.00;;;17.39;100.00
9474;BME280;8865;47.636;7.692;2022-08-30T05:13:37;98440.59;;;17.43;100.00
9474;BME280;8865;47.636;7.692;2022-08-30T05:16:05;98435.13;;;17.44;100.00
9474;BME280;8865;47.636;7.692;2022-08-30T05:18:33;98425.03;;;17.48;100.00
9474;BME280;8865;47.636;7.692;2022-08-30T05:21:07;98432.63;;;17.51;100.00
9474;BME280;8865;47.636;7.692;2022-08-30T05:23:35;98440.41;;;17.53;100.00
9474;BME280;8865;47.636;7.692;2022-08-30T05:26:14;98432.28;;;17.54;100.00
9474;BME280;8865;47.636;7.692;2022-08-30T05:28:41;98438.88;;;17.58;100.00
9474;BME280;8865;47.636;7.692;2022-08-30T05:33:52;98435.19;;;17.67;100.00
9474;BME280;8865;47.636;7.692;2022-08-30T05:36:22;98433.03;;;17.71;100.00
9474;BME280;8865;47.636;7.692;2022-08-30T05:38:49;98433.31;;;17.76;100.00
9474;BME280;8865;47.636;7.692;2022-08-30T05:41:18;98433.63;;;17.81;100.00
9474;BME280;8865;47.636;7.692;2022-08-30T05:43:44;98431.63;;;17.83;100.00
9474;BME280;8865;47.636;7.692;2022-08-30T05:46:12;98434.63;;;17.89;100.00
9474;BME280;8865;47.636;7.692;2022-08-30T05:48:39;98433.44;;;17.91;100.00
9474;BME280;8865;47.636;7.692;2022-08-30T05:51:07;98431.59;;;18.00;100.00
9474;BME280;8865;47.636;7.692;2022-08-30T05:53:34;98429.69;;;18.09;100.00
9474;BME280;8865;47.636;7.692;2022-08-30T05:56:06;98428.63;;;18.18;100.00
9474;BME280;8865;47.636;7.692;2022-08-30T05:58:33;98424.28;;;18.25;100.00
9474;BME280;8865;47.636;7.692;2022-08-30T06:00:59;98428.97;;;18.38;100.00
9474;BME280;8865;47.636;7.692;2022-08-30T06:03:26;98425.91;;;18.49;100.00
9474;BME280;8865;47.636;7.692;2022-08-30T06:05:52;98418.13;;;18.63;100.00
9474;BME280;8865;47.636;7.692;2022-08-30T06:08:19;98410.94;;;18.71;100.00
9474;BME280;8865;47.636;7.692;2022-08-30T06:10:45;98403.72;;;18.80;100.00
9474;BME280;8865;47.636;7.692;2022-08-30T06:13:12;98406.59;;;18.94;100.00
9474;BME280;8865;47.636;7.692;2022-08-30T06:15:38;98400.22;;;19.03;100.00
9474;BME280;8865;47.636;7.692;2022-08-30T06:18:05;98399.75;;;19.14;100.00
9474;BME280;8865;47.636;7.692;2022-08-30T06:20:31;98401.75;;;19.27;100.00
9474;BME280;8865;47.636;7.692;2022-08-30T06:22:57;98391.47;;;19.39;100.00
9474;BME280;8865;47.636;7.692;2022-08-30T06:25:23;98393.81;;;19.49;100.00
9474;BME280;8865;47.636;7.692;2022-08-30T06:27:49;98393.56;;;19.58;100.00
9474;BME280;8865;47.636;7.692;2022-08-30T06:30:15;98400.03;;;19.71;100.00
9474;BME280;8865;47.636;7.692;2022-08-30T06:32:41;98396.28;;;19.80;100.00
9474;BME280;8865;47.636;7.692;2022-08-30T06:35:07;98394.69;;;19.86;100.00
9474;BME280;8865;47.636;7.692;2022-08-30T06:37:33;98387.34;;;19.88;100.00
9474;BME280;8865;47.636;7.692;2022-08-30T06:40:00;98385.94;;;19.92;100.00
9474;BME280;8865;47.636;7.692;2022-08-30T06:42:29;98379.69;;;19.99;100.00
9474;BME280;8865;47.636;7.692;2022-08-30T06:44:57;98381.22;;;20.09;100.00
9474;BME280;8865;47.636;7.692;2022-08-30T06:47:23;98387.22;;;20.17;100.00
9474;BME280;8865;47.636;7.692;2022-08-30T06:49:49;98379.56;;;20.29;100.00
9474;BME280;8865;47.636;7.692;2022-08-30T06:52:15;98377.41;;;20.40;100.00
9474;BME280;8865;47.636;7.692;2022-08-30T06:54:41;98366.59;;;20.48;100.00
9474;BME280;8865;47.636;7.692;2022-08-30T06:57:07;98364.66;;;20.63;100.00
9474;BME280;8865;47.636;7.692;2022-08-30T06:59:33;98373.41;;;20.79;100.00
9474;BME280;8865;47.636;7.692;2022-08-30T07:01:59;98379.63;;;20.93;100.00
9474;BME280;8865;47.636;7.692;2022-08-30T07:04:25;98383.81;;;21.09;100.00
9474;BME280;8865;47.636;7.692;2022-08-30T07:06:51;98375.94;;;21.29;100.00
9474;BME280;8865;47.636;7.692;2022-08-30T07:09:17;98377.66;;;21.50;100.00
9474;BME280;8865;47.636;7.692;2022-08-30T07:11:44;98382.03;;;21.64;100.00
9474;BME280;8865;47.636;7.692;2022-08-30T07:14:10;98373.63;;;21.74;100.00
9474;BME280;8865;47.636;7.692;2022-08-30T07:16:36;98366.28;;;21.89;100.00
9474;BME280;8865;47.636;7.692;2022-08-30T07:19:03;98371.84;;;22.08;100.00
9474;BME280;8865;47.636;7.692;2022-08-30T07:21:34;98377.03;;;22.36;100.00
9474;BME280;8865;47.636;7.692;2022-08-30T07:24:01;98373.09;;;22.59;100.00
9474;BME280;8865;47.636;7.692;2022-08-30T07:26:31;98364.06;;;22.73;100.00
9474;BME280;8865;47.636;7.692;2022-08-30T07:28:57;98369.97;;;22.95;100.00
9474;BME280;8865;47.636;7.692;2022-08-30T07:31:24;98364.38;;;23.17;100.00
9474;BME280;8865;47.636;7.692;2022-08-30T07:33:50;98368.41;;;23.40;100.00
9474;BME280;8865;47.636;7.692;2022-08-30T07:36:17;98363.97;;;23.59;100.00
9474;BME280;8865;47.636;7.692;2022-08-30T07:38:45;98362.47;;;23.76;100.00
9474;BME280;8865;47.636;7.692;2022-08-30T07:41:24;98355.28;;;24.09;100.00
9474;BME280;8865;47.636;7.692;2022-08-30T07:43:51;98355.13;;;24.29;100.00
9474;BME280;8865;47.636;7.692;2022-08-30T07:46:17;98354.84;;;24.37;100.00
9474;BME280;8865;47.636;7.692;2022-08-30T07:48:44;98350.03;;;24.46;100.00
9474;BME280;8865;47.636;7.692;2022-08-30T07:51:13;98351.78;;;24.58;100.00
9474;BME280;8865;47.636;7.692;2022-08-30T07:53:39;98358.91;;;24.71;100.00
9474;BME280;8865;47.636;7.692;2022-08-30T07:56:05;98352.94;;;24.88;100.00
9474;BME280;8865;47.636;7.692;2022-08-30T07:58:32;98358.69;;;25.10;100.00
9474;BME280;8865;47.636;7.692;2022-08-30T08:00:58;98355.91;;;24.80;100.00
9474;BME280;8865;47.636;7.692;2022-08-30T08:03:25;98360.38;;;25.04;100.00
9474;BME280;8865;47.636;7.692;2022-08-30T08:05:51;98353.75;;;25.25;100.00
9474;BME280;8865;47.636;7.692;2022-08-30T08:08:21;98350.84;;;25.45;100.00
9474;BME280;8865;47.636;7.692;2022-08-30T08:10:47;98352.69;;;25.63;100.00
9474;BME280;8865;47.636;7.692;2022-08-30T08:13:13;98347.72;;;25.91;100.00
9474;BME280;8865;47.636;7.692;2022-08-30T08:15:40;98351.31;;;26.15;100.00
9474;BME280;8865;47.636;7.692;2022-08-30T08:18:06;98350.75;;;26.25;100.00
9474;BME280;8865;47.636;7.692;2022-08-30T08:20:32;98352.88;;;26.34;100.00
9474;BME280;8865;47.636;7.692;2022-08-30T08:22:59;98350.53;;;26.38;100.00
9474;BME280;8865;47.636;7.692;2022-08-30T08:25:25;98343.88;;;26.41;100.00
9474;BME280;8865;47.636;7.692;2022-08-30T08:27:51;98347.03;;;26.37;100.00
9474;BME280;8865;47.636;7.692;2022-08-30T08:30:19;98345.16;;;26.38;100.00
9474;BME280;8865;47.636;7.692;2022-08-30T08:32:46;98342.69;;;26.36;100.00
9474;BME280;8865;47.636;7.692;2022-08-30T08:35:12;98339.75;;;26.26;100.00
9474;BME280;8865;47.636;7.692;2022-08-30T08:37:39;98331.13;;;26.12;100.00
9474;BME280;8865;47.636;7.692;2022-08-30T08:40:07;98335.56;;;26.18;100.00
9474;BME280;8865;47.636;7.692;2022-08-30T08:43:15;98341.88;;;26.24;100.00
9474;BME280;8865;47.636;7.692;2022-08-30T08:48:28;98351.22;;;26.33;100.00
9474;BME280;8865;47.636;7.692;2022-08-30T08:50:55;98341.44;;;26.51;100.00
9474;BME280;8865;47.636;7.692;2022-08-30T08:53:43;98338.75;;;26.86;100.00
9474;BME280;8865;47.636;7.692;2022-08-30T08:56:15;98342.72;;;27.36;100.00
9474;BME280;8865;47.636;7.692;2022-08-30T08:58:47;98338.00;;;27.55;100.00
9474;BME280;8865;47.636;7.692;2022-08-30T09:01:15;98341.88;;;27.48;100.00
9474;BME280;8865;47.636;7.692;2022-08-30T09:03:42;98346.44;;;27.47;100.00
9474;BME280;8865;47.636;7.692;2022-08-30T09:08:44;98346.81;;;27.39;100.00
9474;BME280;8865;47.636;7.692;2022-08-30T09:11:18;98341.66;;;27.49;100.00
9474;BME280;8865;47.636;7.692;2022-08-30T09:13:45;98334.41;;;27.67;100.00
9474;BME280;8865;47.636;7.692;2022-08-30T09:19:10;98331.97;;;28.11;100.00
9474;BME280;8865;47.636;7.692;2022-08-30T09:21:36;98334.47;;;28.51;100.00
9474;BME280;8865;47.636;7.692;2022-08-30T09:24:03;98321.38;;;28.77;98.99
9474;BME280;8865;47.636;7.692;2022-08-30T09:26:34;98325.78;;;29.06;88.08
9474;BME280;8865;47.636;7.692;2022-08-30T09:29:01;98320.25;;;29.39;87.22
9474;BME280;8865;47.636;7.692;2022-08-30T09:31:33;98323.19;;;29.38;87.38
9474;BME280;8865;47.636;7.692;2022-08-30T09:34:16;98322.38;;;29.87;84.53
9474;BME280;8865;47.636;7.692;2022-08-30T09:36:48;98311.34;;;30.26;83.61
9474;BME280;8865;47.636;7.692;2022-08-30T09:39:17;98309.31;;;30.96;80.72
9474;BME280;8865;47.636;7.692;2022-08-30T09:41:46;98302.78;;;31.71;75.55
9474;BME280;8865;47.636;7.692;2022-08-30T09:46:54;98300.00;;;32.79;70.24
9474;BME280;8865;47.636;7.692;2022-08-30T09:49:31;98290.97;;;32.94;62.42
9474;BME280;8865;47.636;7.692;2022-08-30T09:57:10;98288.91;;;33.75;60.83
9474;BME280;8865;47.636;7.692;2022-08-30T09:59:59;98278.19;;;34.48;60.50
9474;BME280;8865;47.636;7.692;2022-08-30T10:08:07;98269.63;;;36.31;49.37
9474;BME280;8865;47.636;7.692;2022-08-30T10:10:55;98258.19;;;36.29;47.56
9474;BME280;8865;47.636;7.692;2022-08-30T10:16:39;98259.31;;;40.22;37.50
9474;BME280;8865;47.636;7.692;2022-08-30T10:22:13;98257.28;;;42.18;31.71
9474;BME280;8865;47.636;7.692;2022-08-30T10:24:47;98249.53;;;43.50;29.85
9474;BME280;8865;47.636;7.692;2022-08-30T10:27:19;98245.81;;;44.51;29.43
9474;BME280;8865;47.636;7.692;2022-08-30T10:29:48;98243.94;;;45.06;28.31
9474;BME280;8865;47.636;7.692;2022-08-30T10:32:38;98236.97;;;45.94;25.64
9474;BME280;8865;47.636;7.692;2022-08-30T10:35:13;98232.53;;;46.13;24.04
9474;BME280;8865;47.636;7.692;2022-08-30T10:37:49;98225.88;;;46.67;25.14
9474;BME280;8865;47.636;7.692;2022-08-30T10:40:29;98231.75;;;47.23;23.61
9474;BME280;8865;47.636;7.692;2022-08-30T10:43:26;98231.09;;;48.12;22.73
9474;BME280;8865;47.636;7.692;2022-08-30T10:45:59;98226.31;;;48.61;20.94
9474;BME280;8865;47.636;7.692;2022-08-30T10:48:36;98218.75;;;48.58;19.96
9474;BME280;8865;47.636;7.692;2022-08-30T10:51:09;98219.59;;;49.64;19.35
9474;BME280;8865;47.636;7.692;2022-08-30T10:53:45;98229.13;;;48.65;19.63
9474;BME280;8865;47.636;7.692;2022-08-30T10:56:18;98209.13;;;49.18;19.46
9474;BME280;8865;47.636;7.692;2022-08-30T10:58:46;98216.44;;;50.34;19.84
9474;BME280;8865;47.636;7.692;2022-08-30T11:13:07;98205.22;;;49.37;19.06
9474;BME280;8865;47.636;7.692;2022-08-30T11:15:36;98201.63;;;49.44;19.31
9474;BME280;8865;47.636;7.692;2022-08-30T11:18:17;98194.34;;;49.03;19.31
9474;BME280;8865;47.636;7.692;2022-08-30T11:20:49;98200.75;;;47.89;19.81
9474;BME280;8865;47.636;7.692;2022-08-30T11:23:31;98199.78;;;47.33;19.94
9474;BME280;8865;47.636;7.692;2022-08-30T11:31:09;98202.09;;;48.65;17.96
9474;BME280;8865;47.636;7.692;2022-08-30T11:33:44;98189.94;;;47.05;19.74
9474;BME280;8865;47.636;7.692;2022-08-30T11:39:03;98184.53;;;46.28;20.07
9474;BME280;8865;47.636;7.692;2022-08-30T11:41:37;98185.03;;;47.25;20.56
9474;BME280;8865;47.636;7.692;2022-08-30T11:46:51;98186.59;;;48.57;19.67
9474;BME280;8865;47.636;7.692;2022-08-30T11:57:24;98184.19;;;45.41;22.01
9474;BME280;8865;47.636;7.692;2022-08-30T12:02:48;98177.75;;;43.63;21.78
9474;BME280;8865;47.636;7.692;2022-08-30T12:10:54;98169.44;;;43.03;23.39
9474;BME280;8865;47.636;7.692;2022-08-30T12:21:08;98150.38;;;44.18;24.26
9474;BME280;8865;47.636;7.692;2022-08-30T12:26:15;98159.28;;;43.79;25.82
9474;BME280;8865;47.636;7.692;2022-08-30T12:28:42;98155.38;;;43.96;25.08
9474;BME280;8865;47.636;7.692;2022-08-30T12:31:13;98152.84;;;43.75;24.98
9474;BME280;8865;47.636;7.692;2022-08-30T12:33:46;98154.91;;;44.10;25.57
9474;BME280;8865;47.636;7.692;2022-08-30T12:36:15;98156.22;;;43.52;26.47
9474;BME280;8865;47.636;7.692;2022-08-30T12:39:16;98150.66;;;42.80;27.31
9474;BME280;8865;47.636;7.692;2022-08-30T12:41:43;98147.63;;;41.83;29.08
9474;BME280;8865;47.636;7.692;2022-08-30T12:44:16;98152.91;;;40.87;31.27
9474;BME280;8865;47.636;7.692;2022-08-30T12:46:47;98159.03;;;40.63;31.18
9474;BME280;8865;47.636;7.692;2022-08-30T12:49:19;98153.13;;;40.52;31.09
9474;BME280;8865;47.636;7.692;2022-08-30T12:51:46;98155.63;;;40.37;32.33
9474;BME280;8865;47.636;7.692;2022-08-30T12:54:30;98154.34;;;40.04;32.35
9474;BME280;8865;47.636;7.692;2022-08-30T12:57:00;98152.63;;;39.82;34.08
9474;BME280;8865;47.636;7.692;2022-08-30T12:59:50;98146.59;;;39.59;31.98
9474;BME280;8865;47.636;7.692;2022-08-30T13:02:25;98141.72;;;39.47;33.35
9474;BME280;8865;47.636;7.692;2022-08-30T13:04:53;98137.88;;;39.57;32.36
9474;BME280;8865;47.636;7.692;2022-08-30T13:10:03;98128.09;;;40.96;31.61
9474;BME280;8865;47.636;7.692;2022-08-30T13:12:30;98126.84;;;42.59;28.55
9474;BME280;8865;47.636;7.692;2022-08-30T13:15:16;98111.63;;;43.34;28.00
9474;BME280;8865;47.636;7.692;2022-08-30T13:17:44;98108.81;;;43.03;27.72
9474;BME280;8865;47.636;7.692;2022-08-30T13:23:06;98093.13;;;42.13;27.45
9474;BME280;8865;47.636;7.692;2022-08-30T13:25:33;98091.81;;;42.88;27.82
9474;BME280;8865;47.636;7.692;2022-08-30T13:28:01;98083.47;;;44.25;25.82
9474;BME280;8865;47.636;7.692;2022-08-30T13:30:28;98077.72;;;45.31;24.83
9474;BME280;8865;47.636;7.692;2022-08-30T13:32:55;98082.09;;;46.05;23.65
9474;BME280;8865;47.636;7.692;2022-08-30T13:35:21;98069.97;;;46.44;24.04
9474;BME280;8865;47.636;7.692;2022-08-30T13:37:47;98069.59;;;47.13;23.13
9474;BME280;8865;47.636;7.692;2022-08-30T13:40:13;98065.97;;;47.50;22.51
9474;BME280;8865;47.636;7.692;2022-08-30T13:42:40;98061.84;;;47.74;22.06
9474;BME280;8865;47.636;7.692;2022-08-30T13:45:11;98059.72;;;47.16;21.50
9474;BME280;8865;47.636;7.692;2022-08-30T13:47:38;98066.16;;;45.72;21.82
9474;BME280;8865;47.636;7.692;2022-08-30T13:50:04;98058.06;;;44.19;22.67
9474;BME280;8865;47.636;7.692;2022-08-30T13:52:30;98069.03;;;43.04;23.83
9474;BME280;8865;47.636;7.692;2022-08-30T13:54:58;98061.63;;;41.98;24.93
9474;BME280;8865;47.636;7.692;2022-08-30T13:57:27;98071.38;;;41.71;27.89
9474;BME280;8865;47.636;7.692;2022-08-30T13:59:53;98073.22;;;41.21;29.30
9474;BME280;8865;47.636;7.692;2022-08-30T14:02:19;98068.34;;;41.39;28.19
9474;BME280;8865;47.636;7.692;2022-08-30T14:04:45;98077.97;;;40.99;27.32
9474;BME280;8865;47.636;7.692;2022-08-30T14:07:11;98088.38;;;40.94;28.32
9474;BME280;8865;47.636;7.692;2022-08-30T14:09:37;98089.38;;;40.68;29.80
9474;BME280;8865;47.636;7.692;2022-08-30T14:12:04;98084.00;;;40.29;29.08
9474;BME280;8865;47.636;7.692;2022-08-30T14:14:30;98094.94;;;39.14;30.04
9474;BME280;8865;47.636;7.692;2022-08-30T14:16:56;98085.22;;;38.29;30.25
9474;BME280;8865;47.636;7.692;2022-08-30T14:19:22;98081.75;;;37.65;33.70
9474;BME280;8865;47.636;7.692;2022-08-30T14:21:48;98075.63;;;37.06;31.10
9474;BME280;8865;47.636;7.692;2022-08-30T14:24:14;98078.34;;;36.60;35.19
9474;BME280;8865;47.636;7.692;2022-08-30T14:26:42;98080.31;;;36.04;34.50
9474;BME280;8865;47.636;7.692;2022-08-30T14:29:12;98073.22;;;35.62;38.40
9474;BME280;8865;47.636;7.692;2022-08-30T14:31:39;98072.44;;;35.14;45.31
9474;BME280;8865;47.636;7.692;2022-08-30T14:34:07;98066.28;;;34.70;48.50
9474;BME280;8865;47.636;7.692;2022-08-30T14:36:35;98072.59;;;34.28;50.08
9474;BME280;8865;47.636;7.692;2022-08-30T14:39:06;98066.81;;;33.91;62.63
9474;BME280;8865;47.636;7.692;2022-08-30T14:41:33;98071.72;;;33.60;62.27
9474;BME280;8865;47.636;7.692;2022-08-30T14:44:15;98070.66;;;33.32;66.67
9474;BME280;8865;47.636;7.692;2022-08-30T14:46:42;98068.13;;;33.06;64.55
9474;BME280;8865;47.636;7.692;2022-08-30T14:49:09;98066.13;;;32.87;76.41
9474;BME280;8865;47.636;7.692;2022-08-30T14:51:35;98064.38;;;32.67;76.77